sensor_id;sensor_type;location;lat;lon;timestamp;pressure;altitude;pressure_sealevel;temperature;humidity
4590;BME280;2307;48.448;9.216;2022-12-18T00:01:38;96318.56;;;-8.84;100.00
4590;BME280;2307;48.448;9.216;2022-12-18T00:04:04;96318.13;;;-8.90;100.00
4590;BME280;2307;48.448;9.216;2022-12-18T00:06:32;96322.97;;;-8.86;100.00
4590;BME280;2307;48.448;9.216;2022-12-18T00:08:59;96319.53;;;-8.85;100.00
4590;BME280;2307;48.448;9.216;2022-12-18T00:11:28;96327.00;;;-8.82;100.00
4590;BME280;2307;48.448;9.216;2022-12-18T00:13:56;96322.06;;;-8.85;100.00
4590;BME280;2307;48.448;9.216;2022-12-18T00:16:23;96327.16;;;-8.71;100.00
4590;BME280;2307;48.448;9.216;2022-12-18T00:18:51;96335.72;;;-8.57;100.00
4590;BME280;2307;48.448;9.216;2022-12-18T00:21:18;96329.31;;;-8.65;100.00
4590;BME280;2307;48.448;9.216;2022-12-18T00:23:45;96334.44;;;-8.65;100.00
4590;BME280;2307;48.448;9.216;2022-12-18T00:26:12;96326.16;;;-8.41;100.00
4590;BME280;2307;48.448;9.216;2022-12-18T00:28:40;96311.19;;;-8.47;100.00
4590;BME280;2307;48.448;9.216;2022-12-18T00:31:07;96319.78;;;-8.48;100.00
4590;BME280;2307;48.448;9.216;2022-12-18T00:33:34;96319.38;;;-8.42;100.00
4590;BME280;2307;48.448;9.216;2022-12-18T00:36:00;96320.25;;;-8.29;100.00
4590;BME280;2307;48.448;9.216;2022-12-18T00:38:27;96324.75;;;-8.20;100.00
4590;BME280;2307;48.448;9.216;2022-12-18T00:40:53;96326.78;;;-8.25;100.00
4590;BME280;2307;48.448;9.216;2022-12-18T00:43:19;96333.84;;;-8.41;100.00
4590;BME280;2307;48.448;9.216;2022-12-18T00:45:46;96337.56;;;-8.59;100.00
4590;BME280;2307;48.448;9.216;2022-12-18T00:48:12;96344.22;;;-8.57;100.00
4590;BME280;2307;48.448;9.216;2022-12-18T00:50:39;96344.56;;;-8.49;100.00
4590;BME280;2307;48.448;9.216;2022-12-18T00:53:05;96331.19;;;-8.27;100.00
4590;BME280;2307;48.448;9.216;2022-12-18T00:55:31;96327.63;;;-8.37;100.00
4590;BME280;2307;48.448;9.216;2022-12-18T00:57:58;96321.56;;;-8.36;100.00
4590;BME280;2307;48.448;9.216;2022-12-18T01:00:24;96319.00;;;-8.36;100.00
4590;BME280;2307;48.448;9.216;2022-12-18T01:02:52;96321.03;;;-8.41;100.00
4590;BME280;2307;48.448;9.216;2022-12-18T01:05:18;96324.75;;;-8.33;100.00
4590;BME280;2307;48.448;9.216;2022-12-18T01:07:45;96323.72;;;-8.30;100.00
4590;BME280;2307;48.448;9.216;2022-12-18T01:10:12;96330.28;;;-8.26;100.00
4590;BME280;2307;48.448;9.216;2022-12-18T01:12:38;96339.22;;;-8.46;100.00
4590;BME280;2307;48.448;9.216;2022-12-18T01:15:05;96354.59;;;-8.46;100.00
4590;BME280;2307;48.448;9.216;2022-12-18T01:17:32;96342.63;;;-8.45;100.00
4590;BME280;2307;48.448;9.216;2022-12-18T01:20:00;96343.44;;;-8.45;100.00
4590;BME280;2307;48.448;9.216;2022-12-18T01:22:26;96339.22;;;-8.46;100.00
4590;BME280;2307;48.448;9.216;2022-12-18T01:24:52;96343.66;;;-8.62;100.00
4590;BME280;2307;48.448;9.216;2022-12-18T01:27:19;96344.47;;;-8.47;100.00
4590;BME280;2307;48.448;9.216;2022-12-18T01:29:45;96356.88;;;-8.41;100.00
4590;BME280;2307;48.448;9.216;2022-12-18T01:32:11;96351.56;;;-8.38;100.00
4590;BME280;2307;48.448;9.216;2022-12-18T01:34:38;96344.59;;;-8.36;100.00
4590;BME280;2307;48.448;9.216;2022-12-18T01:37:06;96355.03;;;-8.39;100.00
4590;BME280;2307;48.448;9.216;2022-12-18T01:39:32;96348.34;;;-8.28;100.00
4590;BME280;2307;48.448;9.216;2022-12-18T01:41:58;96340.31;;;-8.23;100.00
4590;BME280;2307;48.448;9.216;2022-12-18T01:47:29;96346.25;;;-8.35;100.00
4590;BME280;2307;48.448;9.216;2022-12-18T01:49:56;96350.16;;;-8.17;100.00
4590;BME280;2307;48.448;9.216;2022-12-18T01:52:25;96353.22;;;-8.37;100.00
4590;BME280;2307;48.448;9.216;2022-12-18T01:54:52;96349.72;;;-8.36;100.00
4590;BME280;2307;48.448;9.216;2022-12-18T01:57:19;96343.78;;;-8.37;100.00
4590;BME280;2307;48.448;9.216;2022-12-18T01:59:46;96349.66;;;-8.35;100.00
4590;BME280;2307;48.448;9.216;2022-12-18T02:02:14;96338.66;;;-8.24;100.00
4590;BME280;2307;48.448;9.216;2022-12-18T02:04:40;96337.56;;;-8.20;100.00
4590;BME280;2307;48.448;9.216;2022-12-18T02:07:07;96332.75;;;-8.25;100.00
4590;BME280;2307;48.448;9.216;2022-12-18T02:09:36;96324.78;;;-8.08;100.00
4590;BME280;2307;48.448;9.216;2022-12-18T02:12:10;96322.56;;;-7.99;100.00
4590;BME280;2307;48.448;9.216;2022-12-18T02:14:40;96324.31;;;-7.87;100.00
4590;BME280;2307;48.448;9.216;2022-12-18T02:17:11;96332.31;;;-7.92;100.00
4590;BME280;2307;48.448;9.216;2022-12-18T02:19:44;96332.50;;;-7.95;100.00
4590;BME280;2307;48.448;9.216;2022-12-18T02:22:20;96350.28;;;-7.79;100.00
4590;BME280;2307;48.448;9.216;2022-12-18T02:24:54;96342.94;;;-7.98;100.00
4590;BME280;2307;48.448;9.216;2022-12-18T02:27:27;96336.03;;;-7.83;100.00
4590;BME280;2307;48.448;9.216;2022-12-18T02:29:55;96343.50;;;-7.93;100.00
4590;BME280;2307;48.448;9.216;2022-12-18T02:32:24;96346.13;;;-7.94;100.00
4590;BME280;2307;48.448;9.216;2022-12-18T02:34:52;96350.25;;;-7.92;100.00
4590;BME280;2307;48.448;9.216;2022-12-18T02:37:20;96342.44;;;-8.03;100.00
4590;BME280;2307;48.448;9.216;2022-12-18T02:39:47;96347.81;;;-7.81;100.00
4590;BME280;2307;48.448;9.216;2022-12-18T02:42:15;96353.84;;;-7.82;100.00
4590;BME280;2307;48.448;9.216;2022-12-18T02:44:44;96355.75;;;-7.71;100.00
4590;BME280;2307;48.448;9.216;2022-12-18T02:47:11;96351.03;;;-7.65;100.00
4590;BME280;2307;48.448;9.216;2022-12-18T02:49:41;96360.53;;;-7.79;100.00
4590;BME280;2307;48.448;9.216;2022-12-18T02:52:13;96368.84;;;-7.76;100.00
4590;BME280;2307;48.448;9.216;2022-12-18T02:54:49;96370.03;;;-7.94;100.00
4590;BME280;2307;48.448;9.216;2022-12-18T02:57:19;96374.63;;;-7.99;100.00
4590;BME280;2307;48.448;9.216;2022-12-18T02:59:52;96365.78;;;-7.81;100.00
4590;BME280;2307;48.448;9.216;2022-12-18T03:02:23;96364.22;;;-7.83;100.00
4590;BME280;2307;48.448;9.216;2022-12-18T03:04:54;96372.16;;;-7.74;100.00
4590;BME280;2307;48.448;9.216;2022-12-18T03:07:24;96372.94;;;-7.73;100.00
4590;BME280;2307;48.448;9.216;2022-12-18T03:09:52;96362.41;;;-7.69;100.00
4590;BME280;2307;48.448;9.216;2022-12-18T03:12:20;96367.13;;;-7.63;100.00
4590;BME280;2307;48.448;9.216;2022-12-18T03:14:52;96353.06;;;-7.70;100.00
4590;BME280;2307;48.448;9.216;2022-12-18T03:17:21;96337.78;;;-7.84;100.00
4590;BME280;2307;48.448;9.216;2022-12-18T03:19:48;96338.00;;;-7.62;100.00
4590;BME280;2307;48.448;9.216;2022-12-18T03:22:15;96343.75;;;-7.71;100.00
4590;BME280;2307;48.448;9.216;2022-12-18T03:24:42;96348.66;;;-7.68;100.00
4590;BME280;2307;48.448;9.216;2022-12-18T03:27:10;96351.94;;;-7.66;100.00
4590;BME280;2307;48.448;9.216;2022-12-18T03:29:38;96352.03;;;-7.67;100.00
4590;BME280;2307;48.448;9.216;2022-12-18T03:32:07;96356.03;;;-7.76;100.00
4590;BME280;2307;48.448;9.216;2022-12-18T03:34:37;96353.00;;;-7.95;100.00
4590;BME280;2307;48.448;9.216;2022-12-18T03:37:04;96350.16;;;-7.90;100.00
4590;BME280;2307;48.448;9.216;2022-12-18T03:39:31;96348.91;;;-7.97;100.00
4590;BME280;2307;48.448;9.216;2022-12-18T03:41:59;96350.38;;;-7.81;100.00
4590;BME280;2307;48.448;9.216;2022-12-18T03:44:30;96354.97;;;-7.86;100.00
4590;BME280;2307;48.448;9.216;2022-12-18T03:47:01;96352.53;;;-7.75;100.00
4590;BME280;2307;48.448;9.216;2022-12-18T03:49:33;96354.97;;;-7.86;100.00
4590;BME280;2307;48.448;9.216;2022-12-18T03:52:01;96362.75;;;-8.00;100.00
4590;BME280;2307;48.448;9.216;2022-12-18T03:54:29;96362.00;;;-8.02;100.00
4590;BME280;2307;48.448;9.216;2022-12-18T03:56:57;96366.66;;;-8.21;100.00
4590;BME280;2307;48.448;9.216;2022-12-18T03:59:24;96368.41;;;-8.34;100.00
4590;BME280;2307;48.448;9.216;2022-12-18T04:01:52;96377.22;;;-8.52;100.00
4590;BME280;2307;48.448;9.216;2022-12-18T04:04:20;96368.34;;;-8.47;100.00
4590;BME280;2307;48.448;9.216;2022-12-18T04:06:49;96361.75;;;-8.51;100.00
4590;BME280;2307;48.448;9.216;2022-12-18T04:09:16;96367.56;;;-8.35;100.00
4590;BME280;2307;48.448;9.216;2022-12-18T04:11:42;96363.47;;;-8.37;100.00
4590;BME280;2307;48.448;9.216;2022-12-18T04:14:09;96366.97;;;-8.26;100.00
4590;BME280;2307;48.448;9.216;2022-12-18T04:16:36;96357.47;;;-8.11;100.00
4590;BME280;2307;48.448;9.216;2022-12-18T04:19:02;96366.75;;;-8.23;100.00
4590;BME280;2307;48.448;9.216;2022-12-18T04:21:29;96363.72;;;-8.15;100.00
4590;BME280;2307;48.448;9.216;2022-12-18T04:23:56;96363.09;;;-8.19;100.00
4590;BME280;2307;48.448;9.216;2022-12-18T04:26:23;96361.25;;;-8.17;100.00
4590;BME280;2307;48.448;9.216;2022-12-18T04:28:49;96369.13;;;-8.32;100.00
4590;BME280;2307;48.448;9.216;2022-12-18T04:31:15;96375.53;;;-8.39;100.00
4590;BME280;2307;48.448;9.216;2022-12-18T04:33:42;96378.03;;;-8.52;100.00
4590;BME280;2307;48.448;9.216;2022-12-18T04:36:08;96372.28;;;-8.55;100.00
4590;BME280;2307;48.448;9.216;2022-12-18T04:38:35;96370.66;;;-8.71;100.00
4590;BME280;2307;48.448;9.216;2022-12-18T04:41:02;96365.28;;;-8.80;100.00
4590;BME280;2307;48.448;9.216;2022-12-18T04:43:29;96367.97;;;-8.82;100.00
4590;BME280;2307;48.448;9.216;2022-12-18T04:46:00;96363.69;;;-8.69;100.00
4590;BME280;2307;48.448;9.216;2022-12-18T04:48:27;96364.97;;;-8.62;100.00
4590;BME280;2307;48.448;9.216;2022-12-18T04:50:53;96378.53;;;-8.59;100.00
4590;BME280;2307;48.448;9.216;2022-12-18T04:53:20;96372.97;;;-8.39;100.00
4590;BME280;2307;48.448;9.216;2022-12-18T04:55:46;96369.59;;;-8.40;100.00
4590;BME280;2307;48.448;9.216;2022-12-18T04:58:14;96369.13;;;-8.46;100.00
4590;BME280;2307;48.448;9.216;2022-12-18T05:00:40;96372.13;;;-8.67;100.00
4590;BME280;2307;48.448;9.216;2022-12-18T05:03:07;96369.97;;;-8.46;100.00
4590;BME280;2307;48.448;9.216;2022-12-18T05:05:34;96365.72;;;-8.59;100.00
4590;BME280;2307;48.448;9.216;2022-12-18T05:08:00;96354.78;;;-8.76;100.00
4590;BME280;2307;48.448;9.216;2022-12-18T05:10:26;96346.91;;;-8.73;100.00
4590;BME280;2307;48.448;9.216;2022-12-18T05:12:53;96329.00;;;-8.73;100.00
4590;BME280;2307;48.448;9.216;2022-12-18T05:15:27;96310.19;;;-8.59;100.00
4590;BME280;2307;48.448;9.216;2022-12-18T05:17:54;96304.13;;;-8.44;100.00
4590;BME280;2307;48.448;9.216;2022-12-18T05:20:20;96323.91;;;-8.33;100.00
4590;BME280;2307;48.448;9.216;2022-12-18T05:22:47;96339.47;;;-8.36;100.00
4590;BME280;2307;48.448;9.216;2022-12-18T05:25:13;96335.19;;;-8.36;100.00
4590;BME280;2307;48.448;9.216;2022-12-18T05:27:40;96342.88;;;-8.36;100.00
4590;BME280;2307;48.448;9.216;2022-12-18T05:30:07;96345.03;;;-8.30;100.00
4590;BME280;2307;48.448;9.216;2022-12-18T05:32:34;96354.38;;;-8.16;100.00
4590;BME280;2307;48.448;9.216;2022-12-18T05:35:01;96352.09;;;-8.21;100.00
4590;BME280;2307;48.448;9.216;2022-12-18T05:37:28;96350.56;;;-8.23;100.00
4590;BME280;2307;48.448;9.216;2022-12-18T05:39:54;96360.09;;;-8.25;100.00
4590;BME280;2307;48.448;9.216;2022-12-18T05:42:21;96352.69;;;-8.03;100.00
4590;BME280;2307;48.448;9.216;2022-12-18T05:44:47;96356.59;;;-7.97;100.00
4590;BME280;2307;48.448;9.216;2022-12-18T05:47:13;96352.59;;;-7.89;100.00
4590;BME280;2307;48.448;9.216;2022-12-18T05:49:41;96362.53;;;-7.97;100.00
4590;BME280;2307;48.448;9.216;2022-12-18T05:52:07;96351.47;;;-7.97;100.00
4590;BME280;2307;48.448;9.216;2022-12-18T05:54:34;96357.50;;;-7.59;100.00
4590;BME280;2307;48.448;9.216;2022-12-18T05:57:00;96358.31;;;-7.59;100.00
4590;BME280;2307;48.448;9.216;2022-12-18T05:59:26;96357.28;;;-7.69;100.00
4590;BME280;2307;48.448;9.216;2022-12-18T06:01:53;96357.97;;;-7.67;100.00
4590;BME280;2307;48.448;9.216;2022-12-18T06:04:19;96360.53;;;-7.67;100.00
4590;BME280;2307;48.448;9.216;2022-12-18T06:06:47;96350.81;;;-7.62;100.00
4590;BME280;2307;48.448;9.216;2022-12-18T06:09:13;96350.81;;;-7.62;100.00
4590;BME280;2307;48.448;9.216;2022-12-18T06:11:40;96336.56;;;-7.66;100.00
4590;BME280;2307;48.448;9.216;2022-12-18T06:14:06;96346.69;;;-7.64;100.00
4590;BME280;2307;48.448;9.216;2022-12-18T06:16:32;96337.59;;;-7.56;100.00
4590;BME280;2307;48.448;9.216;2022-12-18T06:18:59;96339.63;;;-7.48;100.00
4590;BME280;2307;48.448;9.216;2022-12-18T06:21:26;96343.56;;;-7.42;100.00
4590;BME280;2307;48.448;9.216;2022-12-18T06:23:54;96354.00;;;-7.58;100.00
4590;BME280;2307;48.448;9.216;2022-12-18T06:26:21;96356.06;;;-7.50;100.00
4590;BME280;2307;48.448;9.216;2022-12-18T06:28:47;96360.38;;;-7.38;100.00
4590;BME280;2307;48.448;9.216;2022-12-18T06:31:14;96362.84;;;-7.24;100.00
4590;BME280;2307;48.448;9.216;2022-12-18T06:33:40;96375.75;;;-7.26;100.00
4590;BME280;2307;48.448;9.216;2022-12-18T06:36:07;96379.28;;;-7.27;100.00
4590;BME280;2307;48.448;9.216;2022-12-18T06:38:35;96385.75;;;-7.21;100.00
4590;BME280;2307;48.448;9.216;2022-12-18T06:41:07;96391.16;;;-7.13;100.00
4590;BME280;2307;48.448;9.216;2022-12-18T06:43:34;96398.66;;;-7.10;100.00
4590;BME280;2307;48.448;9.216;2022-12-18T06:46:01;96400.41;;;-6.98;100.00
4590;BME280;2307;48.448;9.216;2022-12-18T06:48:27;96403.59;;;-6.94;100.00
4590;BME280;2307;48.448;9.216;2022-12-18T06:50:54;96405.66;;;-7.12;100.00
4590;BME280;2307;48.448;9.216;2022-12-18T06:53:20;96402.38;;;-7.14;100.00
4590;BME280;2307;48.448;9.216;2022-12-18T06:55:46;96402.78;;;-7.20;100.00
4590;BME280;2307;48.448;9.216;2022-12-18T06:58:14;96418.47;;;-7.25;100.00
4590;BME280;2307;48.448;9.216;2022-12-18T07:00:41;96415.41;;;-7.17;100.00
4590;BME280;2307;48.448;9.216;2022-12-18T07:03:07;96421.53;;;-7.20;100.00
4590;BME280;2307;48.448;9.216;2022-12-18T07:05:33;96425.56;;;-7.16;100.00
4590;BME280;2307;48.448;9.216;2022-12-18T07:08:00;96423.63;;;-7.12;100.00
4590;BME280;2307;48.448;9.216;2022-12-18T07:10:26;96426.72;;;-7.07;100.00
4590;BME280;2307;48.448;9.216;2022-12-18T07:12:52;96421.88;;;-6.99;100.00
4590;BME280;2307;48.448;9.216;2022-12-18T07:15:20;96424.03;;;-6.93;100.00
4590;BME280;2307;48.448;9.216;2022-12-18T07:17:46;96430.63;;;-7.02;100.00
4590;BME280;2307;48.448;9.216;2022-12-18T07:20:13;96432.03;;;-7.10;100.00
4590;BME280;2307;48.448;9.216;2022-12-18T07:22:39;96430.63;;;-7.02;100.00
4590;BME280;2307;48.448;9.216;2022-12-18T07:25:06;96434.63;;;-6.85;100.00
4590;BME280;2307;48.448;9.216;2022-12-18T07:27:33;96436.56;;;-6.76;100.00
4590;BME280;2307;48.448;9.216;2022-12-18T07:29:59;96432.22;;;-6.75;100.00
4590;BME280;2307;48.448;9.216;2022-12-18T07:32:27;96431.03;;;-6.82;100.00
4590;BME280;2307;48.448;9.216;2022-12-18T07:34:54;96437.19;;;-6.85;100.00
4590;BME280;2307;48.448;9.216;2022-12-18T07:37:26;96438.81;;;-6.84;100.00
4590;BME280;2307;48.448;9.216;2022-12-18T07:39:55;96445.19;;;-6.89;100.00
4590;BME280;2307;48.448;9.216;2022-12-18T07:42:24;96435.94;;;-6.79;100.00
4590;BME280;2307;48.448;9.216;2022-12-18T07:45:04;96439.03;;;-6.87;100.00
4590;BME280;2307;48.448;9.216;2022-12-18T07:47:36;96441.50;;;-6.85;100.00
4590;BME280;2307;48.448;9.216;2022-12-18T07:50:18;96433.47;;;-6.93;100.00
4590;BME280;2307;48.448;9.216;2022-12-18T07:52:51;96433.59;;;-6.82;100.00
4590;BME280;2307;48.448;9.216;2022-12-18T07:55:37;96426.72;;;-6.94;100.00
4590;BME280;2307;48.448;9.216;2022-12-18T07:58:06;96421.47;;;-6.93;100.00
4590;BME280;2307;48.448;9.216;2022-12-18T08:00:34;96422.06;;;-6.77;100.00
4590;BME280;2307;48.448;9.216;2022-12-18T08:03:02;96433.47;;;-6.68;100.00
4590;BME280;2307;48.448;9.216;2022-12-18T08:05:28;96440.06;;;-6.77;100.00
4590;BME280;2307;48.448;9.216;2022-12-18T08:07:55;96443.03;;;-6.70;100.00
4590;BME280;2307;48.448;9.216;2022-12-18T08:10:21;96442.09;;;-6.69;100.00
4590;BME280;2307;48.448;9.216;2022-12-18T08:12:48;96445.47;;;-6.69;100.00
4590;BME280;2307;48.448;9.216;2022-12-18T08:15:15;96440.75;;;-6.75;100.00
4590;BME280;2307;48.448;9.216;2022-12-18T08:17:41;96447.44;;;-6.60;100.00
4590;BME280;2307;48.448;9.216;2022-12-18T08:20:10;96446.50;;;-6.59;100.00
4590;BME280;2307;48.448;9.216;2022-12-18T08:22:36;96451.63;;;-6.59;100.00
4590;BME280;2307;48.448;9.216;2022-12-18T08:25:04;96447.25;;;-6.69;100.00
4590;BME280;2307;48.448;9.216;2022-12-18T08:27:31;96451.22;;;-6.65;100.00
4590;BME280;2307;48.448;9.216;2022-12-18T08:29:57;96450.50;;;-6.55;100.00
4590;BME280;2307;48.448;9.216;2022-12-18T08:32:24;96451.53;;;-6.57;100.00
4590;BME280;2307;48.448;9.216;2022-12-18T08:34:50;96450.50;;;-6.55;100.00
4590;BME280;2307;48.448;9.216;2022-12-18T08:37:18;96454.09;;;-6.44;100.00
4590;BME280;2307;48.448;9.216;2022-12-18T08:39:44;96448.16;;;-6.58;100.00
4590;BME280;2307;48.448;9.216;2022-12-18T08:42:10;96453.38;;;-6.47;100.00
4590;BME280;2307;48.448;9.216;2022-12-18T08:44:54;96455.84;;;-6.58;100.00
4590;BME280;2307;48.448;9.216;2022-12-18T08:47:21;96452.75;;;-6.37;100.00
4590;BME280;2307;48.448;9.216;2022-12-18T08:49:47;96456.25;;;-6.38;100.00
4590;BME280;2307;48.448;9.216;2022-12-18T08:52:13;96467.53;;;-6.28;100.00
4590;BME280;2307;48.448;9.216;2022-12-18T08:54:41;96471.44;;;-6.23;100.00
4590;BME280;2307;48.448;9.216;2022-12-18T08:57:07;96470.81;;;-6.26;100.00
4590;BME280;2307;48.448;9.216;2022-12-18T08:59:34;96458.63;;;-6.12;100.00
4590;BME280;2307;48.448;9.216;2022-12-18T09:02:00;96455.16;;;-6.11;100.00
4590;BME280;2307;48.448;9.216;2022-12-18T09:04:26;96448.56;;;-6.15;100.00
4590;BME280;2307;48.448;9.216;2022-12-18T09:06:56;96446.94;;;-6.16;100.00
4590;BME280;2307;48.448;9.216;2022-12-18T09:09:22;96432.09;;;-6.00;100.00
4590;BME280;2307;48.448;9.216;2022-12-18T09:12:00;96440.63;;;-6.12;100.00
4590;BME280;2307;48.448;9.216;2022-12-18T09:14:27;96436.72;;;-6.05;100.00
4590;BME280;2307;48.448;9.216;2022-12-18T09:16:54;96430.53;;;-6.02;100.00
4590;BME280;2307;48.448;9.216;2022-12-18T09:19:22;96434.75;;;-6.01;100.00
4590;BME280;2307;48.448;9.216;2022-12-18T09:22:20;96436.41;;;-6.00;100.00
4590;BME280;2307;48.448;9.216;2022-12-18T09:24:38;96434.53;;;-5.98;100.00
4590;BME280;2307;48.448;9.216;2022-12-18T09:27:06;96421.13;;;-5.90;100.00
4590;BME280;2307;48.448;9.216;2022-12-18T09:29:33;96418.44;;;-5.89;100.00
4590;BME280;2307;48.448;9.216;2022-12-18T09:31:59;96419.53;;;-5.80;100.00
4590;BME280;2307;48.448;9.216;2022-12-18T09:34:39;96415.41;;;-5.83;100.00
4590;BME280;2307;48.448;9.216;2022-12-18T09:37:05;96413.50;;;-5.68;100.00
4590;BME280;2307;48.448;9.216;2022-12-18T09:39:32;96417.63;;;-5.55;100.00
4590;BME280;2307;48.448;9.216;2022-12-18T09:41:58;96414.72;;;-5.50;100.00
4590;BME280;2307;48.448;9.216;2022-12-18T09:44:27;96415.56;;;-5.50;100.00
4590;BME280;2307;48.448;9.216;2022-12-18T09:46:57;96411.84;;;-5.46;100.00
4590;BME280;2307;48.448;9.216;2022-12-18T09:49:26;96419.19;;;-5.52;100.00
4590;BME280;2307;48.448;9.216;2022-12-18T09:51:55;96421.69;;;-5.40;100.00
4590;BME280;2307;48.448;9.216;2022-12-18T09:54:24;96417.47;;;-5.29;100.00
4590;BME280;2307;48.448;9.216;2022-12-18T09:56:52;96412.81;;;-5.24;100.00
4590;BME280;2307;48.448;9.216;2022-12-18T09:59:21;96414.47;;;-5.23;100.00
4590;BME280;2307;48.448;9.216;2022-12-18T10:01:50;96422.56;;;-5.17;100.00
4590;BME280;2307;48.448;9.216;2022-12-18T10:04:17;96415.63;;;-5.16;100.00
4590;BME280;2307;48.448;9.216;2022-12-18T10:06:45;96414.59;;;-5.14;100.00
4590;BME280;2307;48.448;9.216;2022-12-18T10:09:15;96425.72;;;-5.13;100.00
4590;BME280;2307;48.448;9.216;2022-12-18T10:11:47;96423.63;;;-5.08;100.00
4590;BME280;2307;48.448;9.216;2022-12-18T10:14:16;96433.09;;;-5.09;100.00
4590;BME280;2307;48.448;9.216;2022-12-18T10:16:47;96432.09;;;-4.95;100.00
4590;BME280;2307;48.448;9.216;2022-12-18T10:19:20;96443.44;;;-4.75;100.00
4590;BME280;2307;48.448;9.216;2022-12-18T10:21:51;96437.28;;;-4.51;100.00
4590;BME280;2307;48.448;9.216;2022-12-18T10:24:24;96438.44;;;-4.44;100.00
4590;BME280;2307;48.448;9.216;2022-12-18T10:26:55;96443.47;;;-4.31;100.00
4590;BME280;2307;48.448;9.216;2022-12-18T10:29:24;96439.38;;;-4.22;100.00
4590;BME280;2307;48.448;9.216;2022-12-18T10:31:51;96441.44;;;-4.05;100.00
4590;BME280;2307;48.448;9.216;2022-12-18T10:34:17;96424.53;;;-3.87;100.00
4590;BME280;2307;48.448;9.216;2022-12-18T10:36:45;96426.84;;;-3.73;100.00
4590;BME280;2307;48.448;9.216;2022-12-18T10:39:14;96427.22;;;-3.46;100.00
4590;BME280;2307;48.448;9.216;2022-12-18T10:41:40;96419.06;;;-3.30;100.00
4590;BME280;2307;48.448;9.216;2022-12-18T10:44:11;96415.41;;;-2.86;100.00
4590;BME280;2307;48.448;9.216;2022-12-18T10:46:38;96420.56;;;-2.56;100.00
4590;BME280;2307;48.448;9.216;2022-12-18T10:49:04;96414.56;;;-2.26;100.00
4590;BME280;2307;48.448;9.216;2022-12-18T10:51:31;96418.31;;;-2.09;100.00
4590;BME280;2307;48.448;9.216;2022-12-18T10:54:01;96423.91;;;-1.95;100.00
4590;BME280;2307;48.448;9.216;2022-12-18T10:56:29;96427.50;;;-1.67;100.00
4590;BME280;2307;48.448;9.216;2022-12-18T10:58:57;96425.63;;;-1.27;100.00
4590;BME280;2307;48.448;9.216;2022-12-18T11:01:24;96422.31;;;-0.90;100.00
4590;BME280;2307;48.448;9.216;2022-12-18T11:03:58;96419.78;;;-0.63;100.00
4590;BME280;2307;48.448;9.216;2022-12-18T11:06:25;96417.81;;;-0.32;100.00
4590;BME280;2307;48.448;9.216;2022-12-18T11:08:57;96421.50;;;-0.08;100.00
4590;BME280;2307;48.448;9.216;2022-12-18T11:11:25;96421.50;;;0.20;100.00
4590;BME280;2307;48.448;9.216;2022-12-18T11:13:56;96412.63;;;0.40;100.00
4590;BME280;2307;48.448;9.216;2022-12-18T11:16:24;96407.75;;;0.72;100.00
4590;BME280;2307;48.448;9.216;2022-12-18T11:18:51;96407.88;;;1.32;100.00
4590;BME280;2307;48.448;9.216;2022-12-18T11:21:17;96394.66;;;1.51;93.42
4590;BME280;2307;48.448;9.216;2022-12-18T11:23:46;96391.13;;;1.08;86.60
4590;BME280;2307;48.448;9.216;2022-12-18T11:26:13;96373.78;;;0.91;91.07
4590;BME280;2307;48.448;9.216;2022-12-18T11:28:41;96365.97;;;0.74;93.04
4590;BME280;2307;48.448;9.216;2022-12-18T11:31:11;96367.53;;;0.84;96.24
4590;BME280;2307;48.448;9.216;2022-12-18T11:33:39;96367.06;;;1.06;96.79
4590;BME280;2307;48.448;9.216;2022-12-18T11:36:08;96367.56;;;1.36;95.58
4590;BME280;2307;48.448;9.216;2022-12-18T11:38:35;96372.38;;;1.23;94.80
4590;BME280;2307;48.448;9.216;2022-12-18T11:41:03;96363.97;;;1.37;92.37
4590;BME280;2307;48.448;9.216;2022-12-18T11:43:33;96374.84;;;1.58;92.70
4590;BME280;2307;48.448;9.216;2022-12-18T11:46:06;96365.59;;;1.64;90.28
4590;BME280;2307;48.448;9.216;2022-12-18T11:48:36;96369.03;;;1.72;90.70
4590;BME280;2307;48.448;9.216;2022-12-18T11:51:05;96364.84;;;1.87;90.04
4590;BME280;2307;48.448;9.216;2022-12-18T11:53:35;96372.00;;;2.27;86.59
4590;BME280;2307;48.448;9.216;2022-12-18T11:56:05;96379.19;;;2.33;82.28
4590;BME280;2307;48.448;9.216;2022-12-18T11:58:43;96379.00;;;2.27;83.34
4590;BME280;2307;48.448;9.216;2022-12-18T12:01:15;96379.28;;;2.07;80.59
4590;BME280;2307;48.448;9.216;2022-12-18T12:03:53;96373.88;;;1.33;80.11
4590;BME280;2307;48.448;9.216;2022-12-18T12:06:23;96378.38;;;0.97;87.35
4590;BME280;2307;48.448;9.216;2022-12-18T12:08:59;96368.72;;;1.16;89.53
4590;BME280;2307;48.448;9.216;2022-12-18T12:11:32;96354.69;;;1.34;93.16
4590;BME280;2307;48.448;9.216;2022-12-18T12:14:05;96352.88;;;1.27;86.62
4590;BME280;2307;48.448;9.216;2022-12-18T12:16:37;96352.56;;;1.04;84.19
4590;BME280;2307;48.448;9.216;2022-12-18T12:19:10;96347.59;;;0.93;88.09
4590;BME280;2307;48.448;9.216;2022-12-18T12:21:43;96334.88;;;0.64;87.51
4590;BME280;2307;48.448;9.216;2022-12-18T12:24:19;96350.03;;;0.51;91.27
4590;BME280;2307;48.448;9.216;2022-12-18T12:26:50;96349.31;;;0.41;94.26
4590;BME280;2307;48.448;9.216;2022-12-18T12:29:22;96346.13;;;-0.16;96.55
4590;BME280;2307;48.448;9.216;2022-12-18T12:31:57;96348.94;;;-0.27;98.75
4590;BME280;2307;48.448;9.216;2022-12-18T12:34:30;96345.56;;;-0.64;100.00
4590;BME280;2307;48.448;9.216;2022-12-18T12:37:03;96334.16;;;-0.54;100.00
4590;BME280;2307;48.448;9.216;2022-12-18T12:39:34;96337.00;;;-0.47;100.00
4590;BME280;2307;48.448;9.216;2022-12-18T12:42:02;96335.78;;;-0.25;100.00
4590;BME280;2307;48.448;9.216;2022-12-18T12:44:48;96335.38;;;-0.48;100.00
4590;BME280;2307;48.448;9.216;2022-12-18T12:47:18;96346.69;;;-0.22;100.00
4590;BME280;2307;48.448;9.216;2022-12-18T12:49:47;96346.50;;;-0.38;100.00
4590;BME280;2307;48.448;9.216;2022-12-18T12:52:15;96352.13;;;-0.79;100.00
4590;BME280;2307;48.448;9.216;2022-12-18T12:54:42;96357.16;;;-1.15;100.00
4590;BME280;2307;48.448;9.216;2022-12-18T12:57:10;96357.47;;;-1.37;100.00
4590;BME280;2307;48.448;9.216;2022-12-18T12:59:40;96363.84;;;-1.31;100.00
4590;BME280;2307;48.448;9.216;2022-12-18T13:02:14;96372.00;;;-1.07;100.00
4590;BME280;2307;48.448;9.216;2022-12-18T13:04:47;96374.47;;;-1.15;100.00
4590;BME280;2307;48.448;9.216;2022-12-18T13:07:15;96386.75;;;-1.17;100.00
4590;BME280;2307;48.448;9.216;2022-12-18T13:12:34;96381.97;;;-1.02;100.00
4590;BME280;2307;48.448;9.216;2022-12-18T13:15:20;96379.72;;;-0.88;100.00
4590;BME280;2307;48.448;9.216;2022-12-18T13:17:47;96376.56;;;-0.72;100.00
4590;BME280;2307;48.448;9.216;2022-12-18T13:20:15;96378.28;;;-0.63;100.00
4590;BME280;2307;48.448;9.216;2022-12-18T13:22:43;96385.69;;;-0.68;100.00
4590;BME280;2307;48.448;9.216;2022-12-18T13:25:29;96385.31;;;-0.73;100.00